createdAt,value
2024-04-24T00:00:43.940Z,6.56
2024-04-24T00:01:43.996Z,6.57
2024-04-24T00:02:43.950Z,6.56
2024-04-24T00:03:44.036Z,6.57
2024-04-24T00:04:43.930Z,6.57
2024-04-24T00:05:43.932Z,6.58
2024-04-24T00:06:43.932Z,6.59
2024-04-24T00:07:43.979Z,6.60
2024-04-24T00:08:43.944Z,6.60
2024-04-24T00:09:43.953Z,6.60
2024-04-24T00:10:43.993Z,6.52
2024-04-24T00:11:44.098Z,6.45
2024-04-24T00:12:43.944Z,6.22
2024-04-24T00:13:44.050Z,5.96
2024-04-24T00:14:44.064Z,5.81
2024-04-24T00:15:44.094Z,5.67
2024-04-24T00:16:44.185Z,5.62
2024-04-24T00:17:44.250Z,5.58
2024-04-24T00:18:44.383Z,5.57
2024-04-24T00:19:44.328Z,5.55
2024-04-24T00:20:44.366Z,5.52
2024-04-24T00:21:44.390Z,5.50
2024-04-24T00:22:44.517Z,5.46
2024-04-24T00:23:44.503Z,5.39
2024-04-24T00:24:44.574Z,5.29
2024-04-24T00:25:44.627Z,5.21
2024-04-24T00:26:44.654Z,5.25
2024-04-24T00:27:44.737Z,5.28
2024-04-24T00:28:44.808Z,5.39
2024-04-24T00:29:44.829Z,5.41
2024-04-24T00:30:44.897Z,5.41
2024-04-24T00:31:44.947Z,5.39
2024-04-24T00:32:45.089Z,5.34
2024-04-24T00:33:45.121Z,5.38
2024-04-24T00:34:45.131Z,5.47
2024-04-24T00:35:45.147Z,5.57
2024-04-24T00:36:45.176Z,5.66
2024-04-24T00:37:45.265Z,5.74
2024-04-24T00:38:45.299Z,5.79
2024-04-24T00:39:45.331Z,5.80
2024-04-24T00:40:45.415Z,5.75
2024-04-24T00:41:45.439Z,5.66
2024-04-24T00:42:45.500Z,5.60
2024-04-24T00:43:45.559Z,5.59
2024-04-24T00:44:45.595Z,5.56
2024-04-24T00:45:47.980Z,5.56
2024-04-24T00:46:45.839Z,5.60
2024-04-24T00:47:45.967Z,5.65
2024-04-24T00:48:46.014Z,5.67
2024-04-24T00:49:45.936Z,5.65
2024-04-24T00:50:45.949Z,5.64
2024-04-24T00:51:45.988Z,5.59
2024-04-24T00:52:46.079Z,5.66
2024-04-24T00:53:46.065Z,5.75
2024-04-24T00:54:46.104Z,5.80
2024-04-24T00:55:46.191Z,5.89
2024-04-24T00:56:46.172Z,5.99
2024-04-24T00:57:46.234Z,6.08
2024-04-24T00:58:46.293Z,6.12
2024-04-24T00:59:46.345Z,6.13
2024-04-24T01:00:46.422Z,6.13
2024-04-24T01:01:46.540Z,6.12
2024-04-24T01:02:46.528Z,6.05
2024-04-24T01:03:46.532Z,5.97
2024-04-24T01:04:46.594Z,5.87
2024-04-24T01:05:46.557Z,5.84
2024-04-24T01:06:49.179Z,5.92
2024-04-24T01:07:46.588Z,6.01
2024-04-24T01:08:46.582Z,5.97
2024-04-24T01:09:46.586Z,5.89
2024-04-24T01:10:46.697Z,5.76
2024-04-24T01:11:46.770Z,5.57
2024-04-24T01:12:46.606Z,5.53
2024-04-24T01:13:46.683Z,5.55
2024-04-24T01:14:46.600Z,5.56
2024-04-24T01:15:46.586Z,5.59
2024-04-24T01:16:46.655Z,5.72
2024-04-24T01:17:46.861Z,5.84
2024-04-24T01:18:46.646Z,5.94
2024-04-24T01:19:46.619Z,6.03
2024-04-24T01:20:46.606Z,6.05
2024-04-24T01:21:48.774Z,5.95
2024-04-24T01:22:46.657Z,5.90
2024-04-24T01:23:46.602Z,5.84
2024-04-24T01:24:46.619Z,5.82
2024-04-24T01:25:46.652Z,5.85
2024-04-24T01:26:46.612Z,5.79
2024-04-24T01:27:46.606Z,5.75
2024-04-24T01:28:46.680Z,5.81
2024-04-24T01:29:46.636Z,5.81
2024-04-24T01:30:46.605Z,5.79
2024-04-24T01:31:46.750Z,5.83
2024-04-24T01:32:46.730Z,5.76
2024-04-24T01:33:46.611Z,5.76
2024-04-24T01:34:56.689Z,5.71
2024-04-24T01:35:46.625Z,5.66
2024-04-24T01:36:46.633Z,5.69
2024-04-24T01:37:46.709Z,5.61
2024-04-24T01:38:46.618Z,5.51
2024-04-24T01:39:46.627Z,5.51
2024-04-24T01:40:46.643Z,5.48
2024-04-24T01:41:46.641Z,5.48
2024-04-24T01:42:46.622Z,5.51
2024-04-24T01:43:46.699Z,5.54
2024-04-24T01:44:46.629Z,5.54
2024-04-24T01:45:46.645Z,5.41
2024-04-24T01:46:46.664Z,5.31
2024-04-24T01:47:46.773Z,5.29
2024-04-24T01:48:46.723Z,5.39
2024-04-24T01:49:46.704Z,5.30
2024-04-24T01:50:46.639Z,5.34
2024-04-24T01:51:46.652Z,5.45
2024-04-24T01:52:46.645Z,5.53
2024-04-24T01:53:46.641Z,5.54
2024-04-24T01:54:46.638Z,5.64
2024-04-24T01:55:46.687Z,5.72
2024-04-24T01:56:46.650Z,5.71
2024-04-24T01:57:46.674Z,5.64
2024-04-24T01:58:46.681Z,5.67
2024-04-24T01:59:46.644Z,5.69
2024-04-24T02:00:46.710Z,5.66
2024-04-24T02:01:46.759Z,5.61
2024-04-24T02:02:46.808Z,5.63
2024-04-24T02:03:46.876Z,5.61
2024-04-24T02:04:46.897Z,5.64
2024-04-24T02:05:46.920Z,5.65
2024-04-24T02:06:47.019Z,5.67
2024-04-24T02:07:47.024Z,5.70
2024-04-24T02:08:47.069Z,5.74
2024-04-24T02:09:47.050Z,5.71
2024-04-24T02:10:47.118Z,5.71
2024-04-24T02:11:53.803Z,5.70
2024-04-24T02:12:48.161Z,5.81
2024-04-24T02:13:47.153Z,5.93
2024-04-24T02:14:47.102Z,5.98
2024-04-24T02:15:47.123Z,6.04
2024-04-24T02:16:48.027Z,6.11
2024-04-24T02:17:47.219Z,6.09
2024-04-24T02:18:47.186Z,6.08
2024-04-24T02:19:47.158Z,6.11
2024-04-24T02:20:47.108Z,6.06
2024-04-24T02:21:47.112Z,5.99
2024-04-24T02:22:47.139Z,5.96
2024-04-24T02:23:47.111Z,5.97
2024-04-24T02:24:47.111Z,5.95
2024-04-24T02:25:47.163Z,5.97
2024-04-24T02:26:47.122Z,6.06
2024-04-24T02:27:47.144Z,6.13
2024-04-24T02:28:47.263Z,6.10
2024-04-24T02:29:54.701Z,6.13
2024-04-24T02:30:48.155Z,6.10
2024-04-24T02:31:47.200Z,5.98
2024-04-24T02:32:47.352Z,5.95
2024-04-24T02:33:47.154Z,5.92
2024-04-24T02:34:47.163Z,5.91
2024-04-24T02:35:47.164Z,5.86
2024-04-24T02:36:47.161Z,5.89
2024-04-24T02:37:47.256Z,5.99
2024-04-24T02:38:47.157Z,5.95
2024-04-24T02:39:47.162Z,5.89
2024-04-24T02:40:47.171Z,5.88
2024-04-24T02:41:47.183Z,5.86
2024-04-24T02:42:47.169Z,5.89
2024-04-24T02:43:47.178Z,5.89
2024-04-24T02:44:47.300Z,5.97
2024-04-24T02:45:47.214Z,6.01
2024-04-24T02:46:47.186Z,5.98
2024-04-24T02:47:47.262Z,6.01
2024-04-24T02:48:47.274Z,6.04
2024-04-24T02:49:47.200Z,6.08
2024-04-24T02:50:47.197Z,6.07
2024-04-24T02:51:47.194Z,5.99
2024-04-24T02:52:47.228Z,5.92
2024-04-24T02:53:47.219Z,5.82
2024-04-24T02:54:47.247Z,5.82
2024-04-24T02:55:47.291Z,5.86
2024-04-24T02:56:49.944Z,5.87
2024-04-24T02:57:47.289Z,5.91
2024-04-24T02:58:47.306Z,6.03
2024-04-24T02:59:47.285Z,6.12
2024-04-24T03:00:47.358Z,6.17
2024-04-24T03:01:47.369Z,6.22
2024-04-24T03:02:47.503Z,6.23
2024-04-24T03:03:47.309Z,6.20
2024-04-24T03:04:47.300Z,6.16
2024-04-24T03:05:47.310Z,6.06
2024-04-24T03:06:47.295Z,5.98
2024-04-24T03:07:53.850Z,5.94
2024-04-24T03:08:47.295Z,5.93
2024-04-24T03:09:47.337Z,5.94
2024-04-24T03:10:47.339Z,5.99
2024-04-24T03:11:47.412Z,6.02
2024-04-24T03:12:47.296Z,6.02
2024-04-24T03:13:47.335Z,6.01
2024-04-24T03:14:47.290Z,6.02
2024-04-24T03:15:47.308Z,6.05
2024-04-24T03:16:47.385Z,6.04
2024-04-24T03:17:53.914Z,5.98
2024-04-24T03:18:47.316Z,5.95
2024-04-24T03:19:47.376Z,5.98
2024-04-24T03:20:47.317Z,6.06
2024-04-24T03:21:47.312Z,6.15
2024-04-24T03:22:47.378Z,6.23
2024-04-24T03:23:47.325Z,6.28
2024-04-24T03:24:47.314Z,6.30
2024-04-24T03:25:47.384Z,6.25
2024-04-24T03:26:47.315Z,6.19
2024-04-24T03:27:47.344Z,6.07
2024-04-24T03:28:47.333Z,6.07
2024-04-24T03:29:47.345Z,6.13
2024-04-24T03:30:47.322Z,6.15
2024-04-24T03:31:47.393Z,6.14
2024-04-24T03:33:08.496Z,6.05
2024-04-24T03:33:47.454Z,6.07
2024-04-24T03:34:47.426Z,6.14
2024-04-24T03:35:47.342Z,6.21
2024-04-24T03:36:47.343Z,6.20
2024-04-24T03:37:47.358Z,6.19
2024-04-24T03:38:47.356Z,6.19
2024-04-24T03:39:47.331Z,6.21
2024-04-24T03:40:47.353Z,6.26
2024-04-24T03:41:47.344Z,6.28
2024-04-24T03:42:47.343Z,6.32
2024-04-24T03:43:47.413Z,6.29
2024-04-24T03:44:47.362Z,6.26
2024-04-24T03:45:47.417Z,6.25
2024-04-24T03:46:47.380Z,6.17
2024-04-24T03:47:47.462Z,6.12
2024-04-24T03:48:47.473Z,6.09
2024-04-24T03:49:47.370Z,6.12
2024-04-24T03:50:47.355Z,6.15
2024-04-24T03:51:47.386Z,6.16
2024-04-24T03:52:47.410Z,6.21
2024-04-24T03:53:47.387Z,6.25
2024-04-24T03:54:47.403Z,6.24
2024-04-24T03:55:47.423Z,6.28
2024-04-24T03:56:47.387Z,6.24
2024-04-24T03:57:47.410Z,6.16
2024-04-24T03:58:47.446Z,6.04
2024-04-24T03:59:47.417Z,6.03
2024-04-24T04:00:47.401Z,6.07
2024-04-24T04:01:47.458Z,6.13
2024-04-24T04:02:47.785Z,6.20
2024-04-24T04:03:47.424Z,6.27
2024-04-24T04:04:47.435Z,6.29
2024-04-24T04:05:47.377Z,6.30
2024-04-24T04:06:47.414Z,6.31
2024-04-24T04:07:47.432Z,6.35
2024-04-24T04:08:47.407Z,6.37
2024-04-24T04:09:47.377Z,6.39
2024-04-24T04:10:47.483Z,6.41
2024-04-24T04:11:47.507Z,6.44
2024-04-24T04:12:47.410Z,6.46
2024-04-24T04:13:47.449Z,6.49
2024-04-24T04:14:47.409Z,6.53
2024-04-24T04:15:47.428Z,6.54
2024-04-24T04:16:47.465Z,6.53
2024-04-24T04:17:47.588Z,6.54
2024-04-24T04:18:47.478Z,6.54
2024-04-24T04:19:47.441Z,6.53
2024-04-24T04:20:47.402Z,6.53
2024-04-24T04:21:47.418Z,6.53
2024-04-24T04:22:47.487Z,6.51
2024-04-24T04:23:47.417Z,6.52
2024-04-24T04:24:47.404Z,6.48
2024-04-24T04:25:47.493Z,6.43
2024-04-24T04:26:47.433Z,6.36
2024-04-24T04:27:47.431Z,6.38
2024-04-24T04:28:47.424Z,6.40
2024-04-24T04:29:47.424Z,6.43
2024-04-24T04:30:47.415Z,6.45
2024-04-24T04:31:47.468Z,6.45
2024-04-24T04:32:47.472Z,6.45
2024-04-24T04:33:47.663Z,6.44
2024-04-24T04:34:47.494Z,6.43
2024-04-24T04:35:47.477Z,6.32
2024-04-24T04:36:47.516Z,6.16
2024-04-24T04:37:47.591Z,6.06
2024-04-24T04:38:47.577Z,6.02
2024-04-24T04:39:47.593Z,5.95
2024-04-24T04:40:47.628Z,5.88
2024-04-24T04:41:47.611Z,5.86
2024-04-24T04:42:47.691Z,5.82
2024-04-24T04:43:47.743Z,5.71
2024-04-24T04:44:47.726Z,5.70
2024-04-24T04:45:47.786Z,5.69
2024-04-24T04:46:47.918Z,5.70
2024-04-24T04:47:48.055Z,5.65
2024-04-24T04:48:55.464Z,5.58
2024-04-24T04:49:55.431Z,5.56
2024-04-24T04:50:55.397Z,5.54
2024-04-24T04:51:55.401Z,5.57
2024-04-24T04:52:55.415Z,5.58
2024-04-24T04:53:55.394Z,5.62
2024-04-24T04:54:55.399Z,5.58
2024-04-24T04:55:55.439Z,5.50
2024-04-24T04:56:55.406Z,5.53
2024-04-24T04:58:00.437Z,5.59
2024-04-24T04:58:55.433Z,5.66
2024-04-24T04:59:55.406Z,5.75
2024-04-24T05:00:55.450Z,5.83
2024-04-24T05:01:57.993Z,5.79
2024-04-24T05:02:55.454Z,5.80
2024-04-24T05:03:55.451Z,5.79
2024-04-24T05:04:55.430Z,5.82
2024-04-24T05:05:55.402Z,5.85
2024-04-24T05:06:55.431Z,5.85
2024-04-24T05:07:55.460Z,5.93
2024-04-24T05:08:55.449Z,5.95
2024-04-24T05:09:55.424Z,6.01
2024-04-24T05:10:55.476Z,6.03
2024-04-24T05:11:55.533Z,6.07
2024-04-24T05:12:55.417Z,6.12
2024-04-24T05:13:55.467Z,6.18
2024-04-24T05:14:55.436Z,6.23
2024-04-24T05:15:55.434Z,6.27
2024-04-24T05:16:55.517Z,6.30
2024-04-24T05:17:55.538Z,6.35
2024-04-24T05:18:55.480Z,6.40
2024-04-24T05:19:55.468Z,6.44
2024-04-24T05:20:55.440Z,6.48
2024-04-24T05:21:55.441Z,6.52
2024-04-24T05:22:55.482Z,6.53
2024-04-24T05:23:55.470Z,6.55
2024-04-24T05:24:55.440Z,6.57
2024-04-24T05:25:55.461Z,6.58
2024-04-24T05:26:55.440Z,6.60
2024-04-24T05:27:55.443Z,6.62
2024-04-24T05:28:55.490Z,6.63
2024-04-24T05:29:55.462Z,6.62
2024-04-24T05:30:55.482Z,6.62
2024-04-24T05:31:55.500Z,6.63
2024-04-24T05:32:55.583Z,6.63
2024-04-24T05:33:55.523Z,6.63
2024-04-24T05:34:55.474Z,6.63
2024-04-24T05:35:55.448Z,6.63
2024-04-24T05:36:55.497Z,6.63
2024-04-24T05:37:55.466Z,6.63
2024-04-24T05:38:55.463Z,6.63
2024-04-24T05:39:55.528Z,6.60
2024-04-24T05:40:55.611Z,6.60
2024-04-24T05:41:55.625Z,6.61
2024-04-24T05:42:55.686Z,6.61
2024-04-24T05:43:55.851Z,6.60
2024-04-24T05:44:55.819Z,6.60
2024-04-24T05:45:55.878Z,6.61
2024-04-24T05:46:55.968Z,6.61
2024-04-24T05:47:56.044Z,6.52
2024-04-24T05:48:56.051Z,6.47
2024-04-24T05:49:56.068Z,6.46
2024-04-24T05:50:56.137Z,6.32
2024-04-24T05:51:56.160Z,6.31
2024-04-24T05:52:56.229Z,6.22
2024-04-24T05:53:56.344Z,6.25
2024-04-24T05:54:56.252Z,6.29
2024-04-24T05:55:56.312Z,6.22
2024-04-24T05:56:56.318Z,6.23
2024-04-24T05:57:56.338Z,6.27
2024-04-24T05:58:56.420Z,6.36
2024-04-24T05:59:56.392Z,6.42
2024-04-24T06:00:56.431Z,6.47
2024-04-24T06:01:56.426Z,6.52
2024-04-24T06:02:56.496Z,6.57
2024-04-24T06:03:56.533Z,6.61
2024-04-24T06:04:56.827Z,6.62
2024-04-24T06:05:56.657Z,6.61
2024-04-24T06:06:56.746Z,6.57
2024-04-24T06:09:47.997Z,6.31
2024-04-24T06:10:11.019Z,6.41
2024-04-24T06:11:11.121Z,6.45
2024-04-24T06:12:11.095Z,6.48
2024-04-24T06:13:10.929Z,6.53
2024-04-24T06:14:11.060Z,6.57
2024-04-24T06:15:10.944Z,6.62
2024-04-24T06:16:10.949Z,6.63
2024-04-24T06:17:10.998Z,6.60
2024-04-24T06:18:11.029Z,6.58
2024-04-24T06:19:10.936Z,6.62
2024-04-24T06:20:11.005Z,6.56
2024-04-24T06:21:10.930Z,6.44
2024-04-24T06:22:10.942Z,6.25
2024-04-24T06:23:10.987Z,5.94
2024-04-24T06:24:12.706Z,5.84
2024-04-24T06:25:10.964Z,5.85
2024-04-24T06:26:10.962Z,5.88
2024-04-24T06:27:10.972Z,5.96
2024-04-24T06:28:10.971Z,5.99
2024-04-24T06:31:49.399Z,5.57
2024-04-24T06:32:19.744Z,5.73
2024-04-24T06:37:17.175Z,5.36
2024-04-24T06:39:23.715Z,5.51
2024-04-24T06:43:34.580Z,5.72
2024-04-24T06:44:07.571Z,6.00
2024-04-24T06:45:07.538Z,6.09
2024-04-24T06:46:07.567Z,6.15
2024-04-24T06:47:07.606Z,6.21
2024-04-24T06:48:07.756Z,6.23
2024-04-24T06:50:41.925Z,6.08
2024-04-24T06:51:11.909Z,6.30
2024-04-24T06:52:40.391Z,6.39
2024-04-24T06:53:34.831Z,6.33
2024-04-24T06:56:51.709Z,6.25
2024-04-24T06:57:20.927Z,6.45
2024-04-24T06:58:49.576Z,6.57
2024-04-24T07:02:01.776Z,6.34
2024-04-24T07:02:29.425Z,6.53
2024-04-24T07:03:31.587Z,6.61
2024-04-24T07:04:29.455Z,6.62
2024-04-24T07:05:54.130Z,6.46
2024-04-24T07:06:29.482Z,6.41
2024-04-24T07:07:56.573Z,6.41
2024-04-24T07:08:29.618Z,6.38
2024-04-24T07:09:29.507Z,6.45
2024-04-24T07:10:29.483Z,6.49
2024-04-24T07:11:29.570Z,6.45
2024-04-24T07:12:29.619Z,6.37
2024-04-24T07:13:56.583Z,6.33
2024-04-24T07:14:29.544Z,6.34
2024-04-24T07:15:29.492Z,6.41
2024-04-24T07:16:29.486Z,6.44
2024-04-24T07:31:18.945Z,6.43
2024-04-24T07:31:51.909Z,6.63
2024-04-24T07:32:51.898Z,6.71
2024-04-24T07:33:51.906Z,6.74
2024-04-24T07:34:51.913Z,6.77
2024-04-24T07:35:51.881Z,6.81
2024-04-24T07:36:51.882Z,6.69
2024-04-24T07:37:51.918Z,6.68
2024-04-24T07:38:51.892Z,6.68
2024-04-24T07:39:51.909Z,6.68
2024-04-24T07:40:51.933Z,6.69
2024-04-24T07:41:51.904Z,6.73
2024-04-24T07:42:51.907Z,6.68
2024-04-24T07:43:51.908Z,6.61
2024-04-24T07:44:51.903Z,6.51
2024-04-24T07:45:51.915Z,6.44
2024-04-24T07:46:51.946Z,6.44
2024-04-24T07:49:23.301Z,6.32
2024-04-24T07:52:36.029Z,6.53
2024-04-24T07:53:04.979Z,6.76
2024-04-24T07:54:05.663Z,6.85
2024-04-24T07:55:04.987Z,6.93
2024-04-24T07:56:05.027Z,6.95
2024-04-24T07:57:04.984Z,6.94
2024-04-24T07:58:04.959Z,6.96
2024-04-24T07:59:04.959Z,7.01
2024-04-24T08:00:04.942Z,7.04
2024-04-24T08:01:05.046Z,7.08
2024-04-24T08:02:05.074Z,7.11
2024-04-24T08:03:05.067Z,7.16
2024-04-24T08:04:05.011Z,7.19
2024-04-24T08:05:04.982Z,7.23
2024-04-24T08:06:04.975Z,7.25
2024-04-24T08:07:04.957Z,7.20
2024-04-24T08:08:04.990Z,7.21
2024-04-24T08:09:05.029Z,7.22
2024-04-24T08:10:05.010Z,7.24
2024-04-24T08:11:06.071Z,7.23
2024-04-24T08:12:08.526Z,7.25
2024-04-24T08:13:04.971Z,7.25
2024-04-24T08:14:05.016Z,7.27
2024-04-24T08:15:04.971Z,7.25
2024-04-24T08:16:05.008Z,7.12
2024-04-24T08:17:05.033Z,7.07
2024-04-24T08:18:04.983Z,7.00
2024-04-24T08:19:04.991Z,6.95
2024-04-24T08:20:31.113Z,6.91
2024-04-24T08:21:04.990Z,6.84
2024-04-24T08:26:49.404Z,6.63
2024-04-24T08:27:22.377Z,6.83
2024-04-24T08:28:32.739Z,6.92
2024-04-24T08:29:24.660Z,6.87
2024-04-24T08:35:10.994Z,6.19
2024-04-24T08:35:39.798Z,6.26
2024-04-24T08:36:42.388Z,6.27
2024-04-24T08:37:39.776Z,6.21
2024-04-24T08:38:39.790Z,6.29
2024-04-24T08:39:39.820Z,6.45
2024-04-24T08:40:39.803Z,6.60
2024-04-24T08:41:39.804Z,6.72
2024-04-24T08:42:39.817Z,6.76
2024-04-24T08:43:39.822Z,6.81
2024-04-24T08:44:39.841Z,6.85
2024-04-24T08:45:39.836Z,6.85
2024-04-24T08:46:39.800Z,6.83
2024-04-24T08:47:39.969Z,6.90
2024-04-24T08:48:39.888Z,6.97
2024-04-24T08:49:39.828Z,7.03
2024-04-24T08:50:39.812Z,7.10
2024-04-24T08:51:39.807Z,7.10
2024-04-24T08:52:39.817Z,7.11
2024-04-24T08:53:39.830Z,7.08
2024-04-24T08:54:39.818Z,7.01
2024-04-24T08:55:39.833Z,6.97
2024-04-24T08:56:39.820Z,6.98
2024-04-24T08:57:39.820Z,7.01
2024-04-24T08:58:39.848Z,6.98
2024-04-24T08:59:39.948Z,6.67
2024-04-24T09:00:39.857Z,6.48
2024-04-24T09:01:39.820Z,6.38
2024-04-24T09:02:39.955Z,6.24
2024-04-24T09:03:39.934Z,6.37
2024-04-24T09:04:39.959Z,6.43
2024-04-24T09:05:39.860Z,6.44
2024-04-24T09:06:39.828Z,6.36
2024-04-24T09:07:39.826Z,6.38
2024-04-24T09:08:39.841Z,6.42
2024-04-24T09:09:39.843Z,6.35
2024-04-24T09:10:39.828Z,6.39
2024-04-24T09:11:39.960Z,6.45
2024-04-24T09:12:39.910Z,6.57
2024-04-24T09:13:39.860Z,6.70
2024-04-24T09:14:39.904Z,6.81
2024-04-24T09:15:39.992Z,6.93
2024-04-24T09:16:40.047Z,7.00
2024-04-24T09:17:40.241Z,7.08
2024-04-24T09:18:40.352Z,7.12
2024-04-24T09:19:40.242Z,7.19
2024-04-24T09:20:40.286Z,7.24
2024-04-24T09:21:40.266Z,7.30
2024-04-24T09:22:40.315Z,7.34
2024-04-24T09:23:40.361Z,7.38
2024-04-24T09:24:40.415Z,7.40
2024-04-24T09:25:40.465Z,7.42
2024-04-24T09:26:40.546Z,7.38
2024-04-24T09:27:40.585Z,7.44
2024-04-24T09:28:40.631Z,7.50
2024-04-24T09:29:40.740Z,7.56
2024-04-24T09:30:40.881Z,7.48
2024-04-24T09:31:40.748Z,7.47
2024-04-24T09:32:40.844Z,7.42
2024-04-24T09:33:40.872Z,7.41
2024-04-24T09:34:40.974Z,7.51
2024-04-24T09:35:40.900Z,7.38
2024-04-24T09:36:43.043Z,7.26
2024-04-24T09:37:41.038Z,7.27
2024-04-24T09:38:41.019Z,7.25
2024-04-24T09:39:41.081Z,7.25
2024-04-24T09:40:41.076Z,7.30
2024-04-24T09:41:41.152Z,7.32
2024-04-24T09:42:41.157Z,7.39
2024-04-24T09:43:41.225Z,7.27
2024-04-24T09:44:41.362Z,7.26
2024-04-24T09:45:41.290Z,7.37
2024-04-24T09:46:41.299Z,7.47
2024-04-24T09:47:41.487Z,7.56
2024-04-24T09:48:41.525Z,7.67
2024-04-24T09:49:41.469Z,7.76
2024-04-24T09:50:41.568Z,7.80
2024-04-24T09:51:41.523Z,7.80
2024-04-24T09:52:41.663Z,7.88
2024-04-24T09:53:41.577Z,7.98
2024-04-24T09:54:41.620Z,8.07
2024-04-24T09:55:41.680Z,8.11
2024-04-24T09:56:41.703Z,7.83
2024-04-24T09:57:41.738Z,7.78
2024-04-24T10:00:11.331Z,7.56
2024-04-24T10:00:46.174Z,7.49
2024-04-24T10:01:46.161Z,7.24
2024-04-24T10:02:46.357Z,7.25
2024-04-24T10:03:46.164Z,7.18
2024-04-24T10:04:46.234Z,7.31
2024-04-24T10:05:51.909Z,7.51
2024-04-24T10:06:47.229Z,7.69
2024-04-24T10:07:46.323Z,7.86
2024-04-24T10:08:46.157Z,7.99
2024-04-24T10:09:46.168Z,8.06
2024-04-24T10:10:46.188Z,8.25
2024-04-24T10:11:46.227Z,8.42
2024-04-24T10:12:46.199Z,8.59
2024-04-24T10:13:46.173Z,8.73
2024-04-24T10:14:46.198Z,8.83
2024-04-24T10:15:46.918Z,8.93
2024-04-24T10:16:46.154Z,8.99
2024-04-24T10:17:46.440Z,9.00
2024-04-24T10:19:46.219Z,8.85
2024-04-24T10:20:46.243Z,8.98
2024-04-24T10:21:46.212Z,9.09
2024-04-24T10:22:46.295Z,9.19
2024-04-24T10:23:46.339Z,9.17
2024-04-24T10:24:46.323Z,9.23
2024-04-24T10:25:46.391Z,9.33
2024-04-24T10:26:46.354Z,9.45
2024-04-24T10:27:46.400Z,9.52
2024-04-24T10:28:49.556Z,9.55
2024-04-24T10:29:46.430Z,9.57
2024-04-24T10:30:46.439Z,9.47
2024-04-24T10:32:15.048Z,9.41
2024-04-24T10:37:34.912Z,9.46
2024-04-24T10:38:03.826Z,9.71
2024-04-24T10:39:03.824Z,9.85
2024-04-24T10:40:03.824Z,9.99
2024-04-24T10:41:03.878Z,10.10
2024-04-24T10:42:03.840Z,10.17
2024-04-24T10:50:13.951Z,9.92
2024-04-24T10:50:46.442Z,10.05
2024-04-24T10:52:17.639Z,10.17
2024-04-24T10:52:46.486Z,10.21
2024-04-24T10:53:55.616Z,10.29
2024-04-24T10:56:27.538Z,10.10
2024-04-24T10:56:51.874Z,10.23
2024-04-24T10:57:50.841Z,10.32
2024-04-24T10:58:50.995Z,10.35
2024-04-24T10:59:54.030Z,10.37
2024-04-24T11:00:50.915Z,10.44
2024-04-24T11:03:23.690Z,10.45
2024-04-24T11:15:45.321Z,10.78
2024-04-24T11:16:12.443Z,10.88
2024-04-24T11:26:20.574Z,10.48
2024-04-24T11:27:20.720Z,10.64
2024-04-24T11:28:20.668Z,10.85
2024-04-24T11:31:55.576Z,10.97
2024-04-24T11:32:56.643Z,10.80
2024-04-24T11:33:29.506Z,10.82
2024-04-24T11:35:11.441Z,11.02
2024-04-24T11:35:29.456Z,10.93
2024-04-24T11:36:29.385Z,10.90
2024-04-24T11:37:29.391Z,10.71
2024-04-24T11:38:29.383Z,10.72
2024-04-24T11:39:29.367Z,10.82
2024-04-24T11:40:29.368Z,10.65
2024-04-24T11:41:29.415Z,10.41
2024-04-24T11:42:29.367Z,10.39
2024-04-24T11:43:29.388Z,10.43
2024-04-24T11:44:29.477Z,10.56
2024-04-24T11:45:29.381Z,10.68
2024-04-24T11:46:29.421Z,10.90
2024-04-24T11:47:29.471Z,11.08
2024-04-24T11:48:40.333Z,11.23
2024-04-24T11:49:30.435Z,11.29
2024-04-24T11:50:29.474Z,11.37
2024-04-24T11:51:29.403Z,11.07
2024-04-24T11:52:29.444Z,10.98
2024-04-24T11:53:29.425Z,10.90
2024-04-24T11:54:29.408Z,10.78
2024-04-24T11:55:29.412Z,10.63
2024-04-24T11:56:29.475Z,10.48
2024-04-24T11:57:29.404Z,10.48
2024-04-24T11:58:29.389Z,10.52
2024-04-24T11:59:29.596Z,10.45
2024-04-24T12:00:29.422Z,10.46
2024-04-24T12:01:30.885Z,10.40
2024-04-24T12:02:29.521Z,10.05
2024-04-24T12:03:29.536Z,9.87
2024-04-24T12:04:29.605Z,9.99
2024-04-24T12:05:29.726Z,9.99
2024-04-24T12:06:29.627Z,10.18
2024-04-24T12:07:29.680Z,10.42
2024-04-24T12:08:29.761Z,10.59
2024-04-24T12:09:29.795Z,10.55
2024-04-24T12:10:29.840Z,10.52
2024-04-24T12:11:29.921Z,10.68
2024-04-24T12:12:30.891Z,10.72
2024-04-24T12:13:31.383Z,10.62
2024-04-24T12:14:30.048Z,10.66
2024-04-24T12:15:30.041Z,10.86
2024-04-24T12:16:30.068Z,10.97
2024-04-24T12:17:30.211Z,11.09
2024-04-24T12:18:31.897Z,11.18
2024-04-24T12:19:30.200Z,10.91
2024-04-24T12:20:30.263Z,10.99
2024-04-24T12:21:30.289Z,11.10
2024-04-24T12:22:30.369Z,11.09
2024-04-24T12:23:30.379Z,11.03
2024-04-24T12:24:30.434Z,10.98
2024-04-24T12:25:30.467Z,10.79
2024-04-24T12:26:30.600Z,10.74
2024-04-24T12:27:30.548Z,10.66
2024-04-24T12:28:30.608Z,10.49
2024-04-24T12:29:30.699Z,10.43
2024-04-24T12:30:30.680Z,10.14
2024-04-24T12:31:30.714Z,10.25
2024-04-24T12:32:30.898Z,10.10
2024-04-24T12:33:30.911Z,9.98
2024-04-24T12:34:30.891Z,10.17
2024-04-24T12:35:30.911Z,10.35
2024-04-24T12:36:30.959Z,10.51
2024-04-24T12:37:30.997Z,10.51
2024-04-24T12:38:31.066Z,10.18
2024-04-24T12:39:31.093Z,10.24
2024-04-24T12:40:31.159Z,10.31
2024-04-24T12:41:31.207Z,10.39
2024-04-24T12:42:31.206Z,10.58
2024-04-24T12:43:32.251Z,10.80
2024-04-24T12:44:31.316Z,10.98
2024-04-24T12:45:31.338Z,10.91
2024-04-24T12:46:31.350Z,10.85
2024-04-24T12:47:31.476Z,10.86
2024-04-24T12:48:31.493Z,11.05
2024-04-24T12:49:31.465Z,11.23
2024-04-24T12:50:31.581Z,11.40
2024-04-24T12:51:31.580Z,11.52
2024-04-24T12:52:31.597Z,11.63
2024-04-24T12:53:31.645Z,11.63
2024-04-24T12:54:31.665Z,11.64
2024-04-24T12:55:31.722Z,11.73
2024-04-24T12:56:31.755Z,11.84
2024-04-24T12:57:31.782Z,11.84
2024-04-24T12:58:31.802Z,11.94
2024-04-24T12:59:31.919Z,11.91
2024-04-24T13:00:31.909Z,12.01
2024-04-24T13:01:31.922Z,12.09
2024-04-24T13:02:32.061Z,12.14
2024-04-24T13:03:33.128Z,12.22
2024-04-24T13:04:33.437Z,12.26
2024-04-24T13:05:32.152Z,12.31
2024-04-24T13:06:32.137Z,12.37
2024-04-24T13:07:32.193Z,12.41
2024-04-24T13:08:32.275Z,12.34
2024-04-24T13:09:32.234Z,12.05
2024-04-24T13:10:32.322Z,11.81
2024-04-24T13:11:32.380Z,11.83
2024-04-24T13:12:32.404Z,11.71
2024-04-24T13:13:32.423Z,11.64
2024-04-24T13:14:32.566Z,11.81
2024-04-24T13:15:32.533Z,11.97
2024-04-24T13:16:32.541Z,12.12
2024-04-24T13:17:32.714Z,12.22
2024-04-24T13:18:32.754Z,12.33
2024-04-24T13:19:32.689Z,12.44
2024-04-24T13:20:32.811Z,12.48
2024-04-24T13:21:32.687Z,12.54
2024-04-24T13:22:32.724Z,12.51
2024-04-24T13:23:32.828Z,12.37
2024-04-24T13:24:32.858Z,12.26
2024-04-24T13:25:32.908Z,12.31
2024-04-24T13:26:32.951Z,12.16
2024-04-24T13:27:32.966Z,12.24
2024-04-24T13:28:33.023Z,12.15
2024-04-24T13:29:33.113Z,11.80
2024-04-24T13:30:33.126Z,11.95
2024-04-24T13:31:33.197Z,12.11
2024-04-24T13:32:33.340Z,12.26
2024-04-24T13:33:33.336Z,12.43
2024-04-24T13:34:34.404Z,12.54
2024-04-24T13:35:33.424Z,12.41
2024-04-24T13:36:33.441Z,12.45
2024-04-24T13:37:33.486Z,12.57
2024-04-24T13:38:33.549Z,12.61
2024-04-24T13:39:33.564Z,12.31
2024-04-24T13:40:33.561Z,12.20
2024-04-24T13:41:36.451Z,12.29
2024-04-24T13:42:33.593Z,12.39
2024-04-24T13:43:33.590Z,12.61
2024-04-24T13:44:33.612Z,12.58
2024-04-24T13:45:33.607Z,12.68
2024-04-24T13:46:33.624Z,12.77
2024-04-24T13:47:33.693Z,12.91
2024-04-24T13:48:35.311Z,13.02
2024-04-24T13:49:33.604Z,13.10
2024-04-24T13:50:33.672Z,13.09
2024-04-24T13:51:33.607Z,13.12
2024-04-24T13:52:33.604Z,13.23
2024-04-24T13:53:33.699Z,13.26
2024-04-24T13:54:33.602Z,13.33
2024-04-24T13:55:33.604Z,13.35
2024-04-24T13:56:33.728Z,13.28
2024-04-24T13:57:34.643Z,13.28
2024-04-24T13:58:33.601Z,13.35
2024-04-24T13:59:33.642Z,13.45
2024-04-24T14:00:33.623Z,13.51
2024-04-24T14:01:33.609Z,13.54
2024-04-24T14:02:33.900Z,13.52
2024-04-24T14:03:33.699Z,13.48
2024-04-24T14:04:33.728Z,13.48
2024-04-24T14:05:33.705Z,13.50
2024-04-24T14:06:33.640Z,13.49
2024-04-24T14:07:33.640Z,13.54
2024-04-24T14:08:33.645Z,13.57
2024-04-24T14:09:33.652Z,13.57
2024-04-24T14:10:33.637Z,13.57
2024-04-24T14:11:33.706Z,13.59
2024-04-24T14:12:33.651Z,13.60
2024-04-24T14:13:33.702Z,13.61
2024-04-24T14:14:34.035Z,13.56
2024-04-24T14:15:33.646Z,13.57
2024-04-24T14:16:33.639Z,13.43
2024-04-24T14:17:33.718Z,13.45
2024-04-24T14:18:33.660Z,13.44
2024-04-24T14:19:33.637Z,13.30
2024-04-24T14:20:33.683Z,13.36
2024-04-24T14:21:33.645Z,13.40
2024-04-24T14:22:34.639Z,13.37
2024-04-24T14:23:33.686Z,13.41
2024-04-24T14:24:33.651Z,13.44
2024-04-24T14:25:35.435Z,13.48
2024-04-24T14:26:33.654Z,13.46
2024-04-24T14:27:33.666Z,13.48
2024-04-24T14:28:33.655Z,13.53
2024-04-24T14:29:33.717Z,13.43
2024-04-24T14:30:33.778Z,13.45
2024-04-24T14:31:33.835Z,13.52